<?xml version="1.0" encoding="UTF-8"?>
<gpx xmlns="http://www.topografix.com/GPX/1/1" version="1.1" xmlns:xsi="http://www.w3.org/2001/XMLSchema-instance" xsi:schemaLocation="http://www.topografix.com/GPX/1/1 http://www.topografix.com/GPX/1/1/gpx.xsd" creator="MotionXGPSFull 20.0 Build 4621R">
<trk>
<name><![CDATA[Track 002]]></name>
<desc><![CDATA[29 mai 2013  6:21 pm]]></desc>
<trkseg>
<trkpt lat="47.4125589" lon="7.0665995">
<ele>433.121</ele>
<time>2013-05-29T16:21:02.367Z</time>
</trkpt>
<trkpt lat="47.4125294" lon="7.0665652">
<ele>434.494</ele>
<time>2013-05-29T16:21:02.728Z</time>
</trkpt>
<trkpt lat="47.4125294" lon="7.0665652">
<ele>435.074</ele>
<time>2013-05-29T16:21:02.828Z</time>
</trkpt>
<trkpt lat="47.4124067" lon="7.0663952">
<ele>435.080</ele>
<time>2013-05-29T16:21:08.473Z</time>
</trkpt>
<trkpt lat="47.4123755" lon="7.0663583">
<ele>435.235</ele>
<time>2013-05-29T16:21:09.384Z</time>
</trkpt>
<trkpt lat="47.4122997" lon="7.0662842">
<ele>435.813</ele>
<time>2013-05-29T16:21:11.552Z</time>
</trkpt>
<trkpt lat="47.4122295" lon="7.0661530">
<ele>436.205</ele>
<time>2013-05-29T16:21:14.354Z</time>
</trkpt>
<trkpt lat="47.4121729" lon="7.0660052">
<ele>435.663</ele>
<time>2013-05-29T16:21:17.399Z</time>
</trkpt>
<trkpt lat="47.4121729" lon="7.0660052">
<ele>434.239</ele>
<time>2013-05-29T16:21:18.359Z</time>
</trkpt>
<trkpt lat="47.4121729" lon="7.0660052">
<ele>433.078</ele>
<time>2013-05-29T16:21:18.459Z</time>
</trkpt>
<trkpt lat="47.4120614" lon="7.0657731">
<ele>432.929</ele>
<time>2013-05-29T16:21:25.168Z</time>
</trkpt>
<trkpt lat="47.4119420" lon="7.0656263">
<ele>433.009</ele>
<time>2013-05-29T16:21:28.640Z</time>
</trkpt>
<trkpt lat="47.4118454" lon="7.0655030">
<ele>432.538</ele>
<time>2013-05-29T16:21:31.250Z</time>
</trkpt>
<trkpt lat="47.4117524" lon="7.0654014">
<ele>431.852</ele>
<time>2013-05-29T16:21:33.473Z</time>
</trkpt>
<trkpt lat="47.4116483" lon="7.0652993">
<ele>431.471</ele>
<time>2013-05-29T16:21:35.814Z</time>
</trkpt>
<trkpt lat="47.4114969" lon="7.0651647">
<ele>431.419</ele>
<time>2013-05-29T16:21:38.990Z</time>
</trkpt>
<trkpt lat="47.4113941" lon="7.0650171">
<ele>431.475</ele>
<time>2013-05-29T16:21:41.433Z</time>
</trkpt>
<trkpt lat="47.4112915" lon="7.0649292">
<ele>432.197</ele>
<time>2013-05-29T16:21:43.342Z</time>
</trkpt>
<trkpt lat="47.4111355" lon="7.0648807">
<ele>434.280</ele>
<time>2013-05-29T16:21:45.834Z</time>
</trkpt>
<trkpt lat="47.4110436" lon="7.0646723">
<ele>436.982</ele>
<time>2013-05-29T16:21:48.384Z</time>
</trkpt>
<trkpt lat="47.4110436" lon="7.0646723">
<ele>438.952</ele>
<time>2013-05-29T16:21:49.387Z</time>
</trkpt>
<trkpt lat="47.4110436" lon="7.0646723">
<ele>439.657</ele>
<time>2013-05-29T16:21:49.487Z</time>
</trkpt>
<trkpt lat="47.4108733" lon="7.0644010">
<ele>439.358</ele>
<time>2013-05-29T16:21:56.117Z</time>
</trkpt>
<trkpt lat="47.4108106" lon="7.0642907">
<ele>438.787</ele>
<time>2013-05-29T16:21:57.962Z</time>
</trkpt>
<trkpt lat="47.4107080" lon="7.0641098">
<ele>438.312</ele>
<time>2013-05-29T16:22:01.044Z</time>
</trkpt>
<trkpt lat="47.4105961" lon="7.0639106">
<ele>437.873</ele>
<time>2013-05-29T16:22:04.380Z</time>
</trkpt>
<trkpt lat="47.4104888" lon="7.0637195">
<ele>437.547</ele>
<time>2013-05-29T16:22:07.464Z</time>
</trkpt>
<trkpt lat="47.4104176" lon="7.0635929">
<ele>437.427</ele>
<time>2013-05-29T16:22:09.538Z</time>
</trkpt>
<trkpt lat="47.4103395" lon="7.0634541">
<ele>437.568</ele>
<time>2013-05-29T16:22:11.953Z</time>
</trkpt>
<trkpt lat="47.4102774" lon="7.0633437">
<ele>437.964</ele>
<time>2013-05-29T16:22:14.013Z</time>
</trkpt>
<trkpt lat="47.4100070" lon="7.0629601">
<ele>438.360</ele>
<time>2013-05-29T16:22:21.519Z</time>
</trkpt>
<trkpt lat="47.4099150" lon="7.0628634">
<ele>438.545</ele>
<time>2013-05-29T16:22:23.511Z</time>
</trkpt>
<trkpt lat="47.4098172" lon="7.0626979">
<ele>438.571</ele>
<time>2013-05-29T16:22:26.099Z</time>
</trkpt>
<trkpt lat="47.4097326" lon="7.0625173">
<ele>438.261</ele>
<time>2013-05-29T16:22:28.745Z</time>
</trkpt>
<trkpt lat="47.4096212" lon="7.0623695">
<ele>437.509</ele>
<time>2013-05-29T16:22:31.562Z</time>
</trkpt>
<trkpt lat="47.4095708" lon="7.0622490">
<ele>436.617</ele>
<time>2013-05-29T16:22:33.422Z</time>
</trkpt>
<trkpt lat="47.4094732" lon="7.0621029">
<ele>435.905</ele>
<time>2013-05-29T16:22:36.284Z</time>
</trkpt>
<trkpt lat="47.4094079" lon="7.0620107">
<ele>435.347</ele>
<time>2013-05-29T16:22:38.197Z</time>
</trkpt>
<trkpt lat="47.4093325" lon="7.0618582">
<ele>434.875</ele>
<time>2013-05-29T16:22:41.012Z</time>
</trkpt>
<trkpt lat="47.4092479" lon="7.0617292">
<ele>434.540</ele>
<time>2013-05-29T16:22:43.788Z</time>
</trkpt>
<trkpt lat="47.4091729" lon="7.0615990">
<ele>434.561</ele>
<time>2013-05-29T16:22:46.532Z</time>
</trkpt>
<trkpt lat="47.4091083" lon="7.0614760">
<ele>434.929</ele>
<time>2013-05-29T16:22:49.132Z</time>
</trkpt>
<trkpt lat="47.4090487" lon="7.0613398">
<ele>435.337</ele>
<time>2013-05-29T16:22:51.941Z</time>
</trkpt>
<trkpt lat="47.4089859" lon="7.0612071">
<ele>435.539</ele>
<time>2013-05-29T16:22:54.823Z</time>
</trkpt>
<trkpt lat="47.4089025" lon="7.0610959">
<ele>435.713</ele>
<time>2013-05-29T16:22:57.845Z</time>
</trkpt>
<trkpt lat="47.4088205" lon="7.0610275">
<ele>436.319</ele>
<time>2013-05-29T16:23:00.484Z</time>
</trkpt>
<trkpt lat="47.4087312" lon="7.0609810">
<ele>437.375</ele>
<time>2013-05-29T16:23:03.245Z</time>
</trkpt>
<trkpt lat="47.4086404" lon="7.0610229">
<ele>438.273</ele>
<time>2013-05-29T16:23:06.855Z</time>
</trkpt>
<trkpt lat="47.4085589" lon="7.0610881">
<ele>438.923</ele>
<time>2013-05-29T16:23:10.436Z</time>
</trkpt>
<trkpt lat="47.4084659" lon="7.0611398">
<ele>439.669</ele>
<time>2013-05-29T16:23:15.650Z</time>
</trkpt>
<trkpt lat="47.4083752" lon="7.0611880">
<ele>440.320</ele>
<time>2013-05-29T16:23:20.188Z</time>
</trkpt>
<trkpt lat="47.4082809" lon="7.0612090">
<ele>440.736</ele>
<time>2013-05-29T16:23:23.931Z</time>
</trkpt>
<trkpt lat="47.4082220" lon="7.0610990">
<ele>441.257</ele>
<time>2013-05-29T16:23:27.531Z</time>
</trkpt>
<trkpt lat="47.4081767" lon="7.0609288">
<ele>442.063</ele>
<time>2013-05-29T16:23:32.428Z</time>
</trkpt>
<trkpt lat="47.4081767" lon="7.0609288">
<ele>442.914</ele>
<time>2013-05-29T16:23:34.445Z</time>
</trkpt>
<trkpt lat="47.4081767" lon="7.0609288">
<ele>443.313</ele>
<time>2013-05-29T16:23:34.545Z</time>
</trkpt>
<trkpt lat="47.4079791" lon="7.0607218">
<ele>443.093</ele>
<time>2013-05-29T16:23:42.957Z</time>
</trkpt>
<trkpt lat="47.4078153" lon="7.0607862">
<ele>443.366</ele>
<time>2013-05-29T16:23:45.312Z</time>
</trkpt>
<trkpt lat="47.4076745" lon="7.0608584">
<ele>444.936</ele>
<time>2013-05-29T16:23:47.231Z</time>
</trkpt>
<trkpt lat="47.4074229" lon="7.0608821">
<ele>446.742</ele>
<time>2013-05-29T16:23:50.494Z</time>
</trkpt>
<trkpt lat="47.4072310" lon="7.0608927">
<ele>447.652</ele>
<time>2013-05-29T16:23:53.313Z</time>
</trkpt>
<trkpt lat="47.4070925" lon="7.0608220">
<ele>447.684</ele>
<time>2013-05-29T16:23:55.596Z</time>
</trkpt>
<trkpt lat="47.4069207" lon="7.0607472">
<ele>446.640</ele>
<time>2013-05-29T16:23:58.649Z</time>
</trkpt>
<trkpt lat="47.4068063" lon="7.0606925">
<ele>444.684</ele>
<time>2013-05-29T16:24:00.872Z</time>
</trkpt>
<trkpt lat="47.4066549" lon="7.0606517">
<ele>442.957</ele>
<time>2013-05-29T16:24:03.875Z</time>
</trkpt>
<trkpt lat="47.4065084" lon="7.0605627">
<ele>442.216</ele>
<time>2013-05-29T16:24:07.168Z</time>
</trkpt>
<trkpt lat="47.4064067" lon="7.0604871">
<ele>442.013</ele>
<time>2013-05-29T16:24:09.716Z</time>
</trkpt>
<trkpt lat="47.4062992" lon="7.0604160">
<ele>441.815</ele>
<time>2013-05-29T16:24:12.564Z</time>
</trkpt>
<trkpt lat="47.4061924" lon="7.0603418">
<ele>441.586</ele>
<time>2013-05-29T16:24:15.624Z</time>
</trkpt>
<trkpt lat="47.4060998" lon="7.0602687">
<ele>441.471</ele>
<time>2013-05-29T16:24:18.444Z</time>
</trkpt>
<trkpt lat="47.4060165" lon="7.0601722">
<ele>441.449</ele>
<time>2013-05-29T16:24:21.351Z</time>
</trkpt>
<trkpt lat="47.4059343" lon="7.0600849">
<ele>441.603</ele>
<time>2013-05-29T16:24:24.203Z</time>
</trkpt>
<trkpt lat="47.4058554" lon="7.0600035">
<ele>442.120</ele>
<time>2013-05-29T16:24:26.987Z</time>
</trkpt>
<trkpt lat="47.4057736" lon="7.0599232">
<ele>443.273</ele>
<time>2013-05-29T16:24:29.887Z</time>
</trkpt>
<trkpt lat="47.4056909" lon="7.0598419">
<ele>445.038</ele>
<time>2013-05-29T16:24:32.868Z</time>
</trkpt>
<trkpt lat="47.4056101" lon="7.0597576">
<ele>446.844</ele>
<time>2013-05-29T16:24:35.876Z</time>
</trkpt>
<trkpt lat="47.4055342" lon="7.0596754">
<ele>448.233</ele>
<time>2013-05-29T16:24:38.744Z</time>
</trkpt>
<trkpt lat="47.4054555" lon="7.0595829">
<ele>449.156</ele>
<time>2013-05-29T16:24:41.826Z</time>
</trkpt>
<trkpt lat="47.4053794" lon="7.0594931">
<ele>449.731</ele>
<time>2013-05-29T16:24:44.855Z</time>
</trkpt>
<trkpt lat="47.4052959" lon="7.0593793">
<ele>450.156</ele>
<time>2013-05-29T16:24:48.490Z</time>
</trkpt>
<trkpt lat="47.4052096" lon="7.0592740">
<ele>450.589</ele>
<time>2013-05-29T16:24:52.162Z</time>
</trkpt>
<trkpt lat="47.4051170" lon="7.0591669">
<ele>451.187</ele>
<time>2013-05-29T16:24:56.089Z</time>
</trkpt>
<trkpt lat="47.4050227" lon="7.0590497">
<ele>451.908</ele>
<time>2013-05-29T16:25:00.244Z</time>
</trkpt>
<trkpt lat="47.4049334" lon="7.0589494">
<ele>452.556</ele>
<time>2013-05-29T16:25:04.101Z</time>
</trkpt>
<trkpt lat="47.4048481" lon="7.0588634">
<ele>453.232</ele>
<time>2013-05-29T16:25:07.788Z</time>
</trkpt>
<trkpt lat="47.4047646" lon="7.0587918">
<ele>454.088</ele>
<time>2013-05-29T16:25:11.423Z</time>
</trkpt>
<trkpt lat="47.4046826" lon="7.0586862">
<ele>455.071</ele>
<time>2013-05-29T16:25:15.761Z</time>
</trkpt>
<trkpt lat="47.4046102" lon="7.0585852">
<ele>455.961</ele>
<time>2013-05-29T16:25:20.036Z</time>
</trkpt>
<trkpt lat="47.4045269" lon="7.0584999">
<ele>456.350</ele>
<time>2013-05-29T16:25:24.537Z</time>
</trkpt>
<trkpt lat="47.4044464" lon="7.0584275">
<ele>455.995</ele>
<time>2013-05-29T16:25:28.313Z</time>
</trkpt>
<trkpt lat="47.4043569" lon="7.0583702">
<ele>455.222</ele>
<time>2013-05-29T16:25:31.990Z</time>
</trkpt>
<trkpt lat="47.4042665" lon="7.0583108">
<ele>454.743</ele>
<time>2013-05-29T16:25:35.721Z</time>
</trkpt>
<trkpt lat="47.4041608" lon="7.0582406">
<ele>454.997</ele>
<time>2013-05-29T16:25:40.302Z</time>
</trkpt>
<trkpt lat="47.4040776" lon="7.0581525">
<ele>455.718</ele>
<time>2013-05-29T16:25:44.620Z</time>
</trkpt>
<trkpt lat="47.4039936" lon="7.0580726">
<ele>456.327</ele>
<time>2013-05-29T16:25:48.952Z</time>
</trkpt>
<trkpt lat="47.4038894" lon="7.0580056">
<ele>456.579</ele>
<time>2013-05-29T16:25:53.503Z</time>
</trkpt>
<trkpt lat="47.4037853" lon="7.0579420">
<ele>456.871</ele>
<time>2013-05-29T16:25:57.731Z</time>
</trkpt>
<trkpt lat="47.4036668" lon="7.0578734">
<ele>457.531</ele>
<time>2013-05-29T16:26:02.581Z</time>
</trkpt>
<trkpt lat="47.4036668" lon="7.0578734">
<ele>458.221</ele>
<time>2013-05-29T16:26:05.398Z</time>
</trkpt>
<trkpt lat="47.4036668" lon="7.0578734">
<ele>458.443</ele>
<time>2013-05-29T16:26:05.498Z</time>
</trkpt>
<trkpt lat="47.4035213" lon="7.0578028">
<ele>458.184</ele>
<time>2013-05-29T16:26:10.434Z</time>
</trkpt>
<trkpt lat="47.4035213" lon="7.0578028">
<ele>457.787</ele>
<time>2013-05-29T16:26:15.435Z</time>
</trkpt>
<trkpt lat="47.4035213" lon="7.0578028">
<ele>457.554</ele>
<time>2013-05-29T16:26:15.535Z</time>
</trkpt>
<trkpt lat="47.4032740" lon="7.0576360">
<ele>457.470</ele>
<time>2013-05-29T16:26:28.652Z</time>
</trkpt>
<trkpt lat="47.4030803" lon="7.0577990">
<ele>457.418</ele>
<time>2013-05-29T16:26:35.212Z</time>
</trkpt>
<trkpt lat="47.4029876" lon="7.0578040">
<ele>457.102</ele>
<time>2013-05-29T16:26:37.779Z</time>
</trkpt>
<trkpt lat="47.4028696" lon="7.0578156">
<ele>456.254</ele>
<time>2013-05-29T16:26:41.128Z</time>
</trkpt>
<trkpt lat="47.4027582" lon="7.0578257">
<ele>455.065</ele>
<time>2013-05-29T16:26:44.409Z</time>
</trkpt>
<trkpt lat="47.4026444" lon="7.0578663">
<ele>454.157</ele>
<time>2013-05-29T16:26:47.999Z</time>
</trkpt>
<trkpt lat="47.4025263" lon="7.0578982">
<ele>453.930</ele>
<time>2013-05-29T16:26:51.711Z</time>
</trkpt>
<trkpt lat="47.4023825" lon="7.0579571">
<ele>454.157</ele>
<time>2013-05-29T16:26:56.014Z</time>
</trkpt>
<trkpt lat="47.4022830" lon="7.0579812">
<ele>454.392</ele>
<time>2013-05-29T16:26:58.532Z</time>
</trkpt>
<trkpt lat="47.4020977" lon="7.0579951">
<ele>454.504</ele>
<time>2013-05-29T16:27:02.706Z</time>
</trkpt>
<trkpt lat="47.4019918" lon="7.0579993">
<ele>454.659</ele>
<time>2013-05-29T16:27:04.939Z</time>
</trkpt>
<trkpt lat="47.4018974" lon="7.0580137">
<ele>455.000</ele>
<time>2013-05-29T16:27:06.906Z</time>
</trkpt>
<trkpt lat="47.4017508" lon="7.0580282">
<ele>455.351</ele>
<time>2013-05-29T16:27:09.933Z</time>
</trkpt>
<trkpt lat="47.4016572" lon="7.0580307">
<ele>455.517</ele>
<time>2013-05-29T16:27:11.890Z</time>
</trkpt>
<trkpt lat="47.4015221" lon="7.0580438">
<ele>455.680</ele>
<time>2013-05-29T16:27:14.776Z</time>
</trkpt>
<trkpt lat="47.4013982" lon="7.0580461">
<ele>455.874</ele>
<time>2013-05-29T16:27:17.474Z</time>
</trkpt>
<trkpt lat="47.4012874" lon="7.0580312">
<ele>455.440</ele>
<time>2013-05-29T16:27:19.914Z</time>
</trkpt>
<trkpt lat="47.4011591" lon="7.0579702">
<ele>454.153</ele>
<time>2013-05-29T16:27:22.885Z</time>
</trkpt>
<trkpt lat="47.4010307" lon="7.0578991">
<ele>453.032</ele>
<time>2013-05-29T16:27:26.098Z</time>
</trkpt>
<trkpt lat="47.4009375" lon="7.0578278">
<ele>452.812</ele>
<time>2013-05-29T16:27:28.768Z</time>
</trkpt>
<trkpt lat="47.4008822" lon="7.0577127">
<ele>453.104</ele>
<time>2013-05-29T16:27:31.420Z</time>
</trkpt>
<trkpt lat="47.4008403" lon="7.0575567">
<ele>453.801</ele>
<time>2013-05-29T16:27:34.794Z</time>
</trkpt>
<trkpt lat="47.4008012" lon="7.0574052">
<ele>455.286</ele>
<time>2013-05-29T16:27:38.313Z</time>
</trkpt>
<trkpt lat="47.4007909" lon="7.0572616">
<ele>457.407</ele>
<time>2013-05-29T16:27:41.639Z</time>
</trkpt>
<trkpt lat="47.4008236" lon="7.0571217">
<ele>459.505</ele>
<time>2013-05-29T16:27:45.107Z</time>
</trkpt>
<trkpt lat="47.4008942" lon="7.0569739">
<ele>461.564</ele>
<time>2013-05-29T16:27:49.092Z</time>
</trkpt>
<trkpt lat="47.4009610" lon="7.0568559">
<ele>464.091</ele>
<time>2013-05-29T16:27:52.386Z</time>
</trkpt>
<trkpt lat="47.4010004" lon="7.0567158">
<ele>466.725</ele>
<time>2013-05-29T16:27:55.755Z</time>
</trkpt>
<trkpt lat="47.4010448" lon="7.0565817">
<ele>468.400</ele>
<time>2013-05-29T16:27:59.214Z</time>
</trkpt>
<trkpt lat="47.4010724" lon="7.0564410">
<ele>468.772</ele>
<time>2013-05-29T16:28:02.749Z</time>
</trkpt>
<trkpt lat="47.4010460" lon="7.0563082">
<ele>468.317</ele>
<time>2013-05-29T16:28:06.300Z</time>
</trkpt>
<trkpt lat="47.4009716" lon="7.0562268">
<ele>467.870</ele>
<time>2013-05-29T16:28:10.183Z</time>
</trkpt>
<trkpt lat="47.4008797" lon="7.0562433">
<ele>467.919</ele>
<time>2013-05-29T16:28:14.409Z</time>
</trkpt>
<trkpt lat="47.4008797" lon="7.0562433">
<ele>468.221</ele>
<time>2013-05-29T16:28:15.472Z</time>
</trkpt>
<trkpt lat="47.4008797" lon="7.0562433">
<ele>468.327</ele>
<time>2013-05-29T16:28:15.572Z</time>
</trkpt>
<trkpt lat="47.4007851" lon="7.0562878">
<ele>468.122</ele>
<time>2013-05-29T16:28:24.090Z</time>
</trkpt>
<trkpt lat="47.4006862" lon="7.0563419">
<ele>468.766</ele>
<time>2013-05-29T16:28:30.995Z</time>
</trkpt>
<trkpt lat="47.4006000" lon="7.0562930">
<ele>471.044</ele>
<time>2013-05-29T16:28:37.455Z</time>
</trkpt>
<trkpt lat="47.4005096" lon="7.0562297">
<ele>473.510</ele>
<time>2013-05-29T16:28:46.853Z</time>
</trkpt>
<trkpt lat="47.4004256" lon="7.0561660">
<ele>474.716</ele>
<time>2013-05-29T16:28:54.635Z</time>
</trkpt>
<trkpt lat="47.4003290" lon="7.0561567">
<ele>475.058</ele>
<time>2013-05-29T16:29:02.898Z</time>
</trkpt>
<trkpt lat="47.4002442" lon="7.0561100">
<ele>475.227</ele>
<time>2013-05-29T16:29:10.040Z</time>
</trkpt>
<trkpt lat="47.4001889" lon="7.0559918">
<ele>475.395</ele>
<time>2013-05-29T16:29:16.403Z</time>
</trkpt>
<trkpt lat="47.4001889" lon="7.0559918">
<ele>475.474</ele>
<time>2013-05-29T16:29:21.398Z</time>
</trkpt>
<trkpt lat="47.4001889" lon="7.0559918">
<ele>475.412</ele>
<time>2013-05-29T16:29:32.287Z</time>
</trkpt>
<trkpt lat="47.4001374" lon="7.0558675">
<ele>475.000</ele>
<time>2013-05-29T16:29:44.369Z</time>
</trkpt>
<trkpt lat="47.4000622" lon="7.0557688">
<ele>475.942</ele>
<time>2013-05-29T16:29:50.802Z</time>
</trkpt>
<trkpt lat="47.3999928" lon="7.0556794">
<ele>478.636</ele>
<time>2013-05-29T16:29:55.444Z</time>
</trkpt>
<trkpt lat="47.3999928" lon="7.0556794">
<ele>481.433</ele>
<time>2013-05-29T16:30:05.396Z</time>
</trkpt>
<trkpt lat="47.3999928" lon="7.0556794">
<ele>482.552</ele>
<time>2013-05-29T16:30:06.182Z</time>
</trkpt>
<trkpt lat="47.3998037" lon="7.0554429">
<ele>482.196</ele>
<time>2013-05-29T16:30:24.532Z</time>
</trkpt>
<trkpt lat="47.3997297" lon="7.0553569">
<ele>481.885</ele>
<time>2013-05-29T16:30:28.678Z</time>
</trkpt>
<trkpt lat="47.3996409" lon="7.0552857">
<ele>482.667</ele>
<time>2013-05-29T16:30:32.649Z</time>
</trkpt>
<trkpt lat="47.3995404" lon="7.0552442">
<ele>483.835</ele>
<time>2013-05-29T16:30:36.471Z</time>
</trkpt>
<trkpt lat="47.3994457" lon="7.0552544">
<ele>484.492</ele>
<time>2013-05-29T16:30:39.954Z</time>
</trkpt>
<trkpt lat="47.3993593" lon="7.0552178">
<ele>484.652</ele>
<time>2013-05-29T16:30:43.383Z</time>
</trkpt>
<trkpt lat="47.3992599" lon="7.0551604">
<ele>484.586</ele>
<time>2013-05-29T16:30:47.598Z</time>
</trkpt>
<trkpt lat="47.3991607" lon="7.0551124">
<ele>484.490</ele>
<time>2013-05-29T16:30:51.876Z</time>
</trkpt>
<trkpt lat="47.3990546" lon="7.0550645">
<ele>484.437</ele>
<time>2013-05-29T16:30:56.494Z</time>
</trkpt>
<trkpt lat="47.3989657" lon="7.0550046">
<ele>484.563</ele>
<time>2013-05-29T16:31:00.443Z</time>
</trkpt>
<trkpt lat="47.3988581" lon="7.0549790">
<ele>484.928</ele>
<time>2013-05-29T16:31:04.557Z</time>
</trkpt>
<trkpt lat="47.3987541" lon="7.0549689">
<ele>485.444</ele>
<time>2013-05-29T16:31:08.272Z</time>
</trkpt>
<trkpt lat="47.3986585" lon="7.0549149">
<ele>485.983</ele>
<time>2013-05-29T16:31:11.837Z</time>
</trkpt>
<trkpt lat="47.3985745" lon="7.0548293">
<ele>486.380</ele>
<time>2013-05-29T16:31:15.385Z</time>
</trkpt>
<trkpt lat="47.3985135" lon="7.0547260">
<ele>486.525</ele>
<time>2013-05-29T16:31:18.842Z</time>
</trkpt>
<trkpt lat="47.3984580" lon="7.0545932">
<ele>486.797</ele>
<time>2013-05-29T16:31:23.069Z</time>
</trkpt>
<trkpt lat="47.3984011" lon="7.0544592">
<ele>487.472</ele>
<time>2013-05-29T16:31:27.537Z</time>
</trkpt>
<trkpt lat="47.3983414" lon="7.0543252">
<ele>488.317</ele>
<time>2013-05-29T16:31:31.795Z</time>
</trkpt>
<trkpt lat="47.3982842" lon="7.0541834">
<ele>489.154</ele>
<time>2013-05-29T16:31:35.759Z</time>
</trkpt>
<trkpt lat="47.3982117" lon="7.0540635">
<ele>489.937</ele>
<time>2013-05-29T16:31:39.403Z</time>
</trkpt>
<trkpt lat="47.3981297" lon="7.0539847">
<ele>490.011</ele>
<time>2013-05-29T16:31:42.582Z</time>
</trkpt>
<trkpt lat="47.3980564" lon="7.0538494">
<ele>489.076</ele>
<time>2013-05-29T16:31:46.311Z</time>
</trkpt>
<trkpt lat="47.3980150" lon="7.0536979">
<ele>487.937</ele>
<time>2013-05-29T16:31:49.793Z</time>
</trkpt>
<trkpt lat="47.3979699" lon="7.0535228">
<ele>487.485</ele>
<time>2013-05-29T16:31:53.638Z</time>
</trkpt>
<trkpt lat="47.3979257" lon="7.0533867">
<ele>487.726</ele>
<time>2013-05-29T16:31:56.486Z</time>
</trkpt>
<trkpt lat="47.3979257" lon="7.0533867">
<ele>488.328</ele>
<time>2013-05-29T16:31:56.585Z</time>
</trkpt>
<trkpt lat="47.3978211" lon="7.0531434">
<ele>488.104</ele>
<time>2013-05-29T16:32:03.053Z</time>
</trkpt>
<trkpt lat="47.3977204" lon="7.0529347">
<ele>487.892</ele>
<time>2013-05-29T16:32:06.634Z</time>
</trkpt>
<trkpt lat="47.3976425" lon="7.0527511">
<ele>488.008</ele>
<time>2013-05-29T16:32:09.562Z</time>
</trkpt>
<trkpt lat="47.3975842" lon="7.0525736">
<ele>488.270</ele>
<time>2013-05-29T16:32:12.158Z</time>
</trkpt>
<trkpt lat="47.3975406" lon="7.0524368">
<ele>488.434</ele>
<time>2013-05-29T16:32:14.157Z</time>
</trkpt>
<trkpt lat="47.3974720" lon="7.0522437">
<ele>488.482</ele>
<time>2013-05-29T16:32:17.148Z</time>
</trkpt>
<trkpt lat="47.3974199" lon="7.0521190">
<ele>488.472</ele>
<time>2013-05-29T16:32:19.291Z</time>
</trkpt>
<trkpt lat="47.3973914" lon="7.0519846">
<ele>488.451</ele>
<time>2013-05-29T16:32:21.537Z</time>
</trkpt>
<trkpt lat="47.3973419" lon="7.0518461">
<ele>488.437</ele>
<time>2013-05-29T16:32:24.201Z</time>
</trkpt>
<trkpt lat="47.3972916" lon="7.0517160">
<ele>488.295</ele>
<time>2013-05-29T16:32:26.875Z</time>
</trkpt>
<trkpt lat="47.3972287" lon="7.0515723">
<ele>487.936</ele>
<time>2013-05-29T16:32:29.948Z</time>
</trkpt>
<trkpt lat="47.3971508" lon="7.0514014">
<ele>487.569</ele>
<time>2013-05-29T16:32:33.505Z</time>
</trkpt>
<trkpt lat="47.3970992" lon="7.0512807">
<ele>487.671</ele>
<time>2013-05-29T16:32:35.830Z</time>
</trkpt>
<trkpt lat="47.3970175" lon="7.0511089">
<ele>488.364</ele>
<time>2013-05-29T16:32:39.184Z</time>
</trkpt>
<trkpt lat="47.3969454" lon="7.0509647">
<ele>489.133</ele>
<time>2013-05-29T16:32:42.061Z</time>
</trkpt>
<trkpt lat="47.3968802" lon="7.0508224">
<ele>489.376</ele>
<time>2013-05-29T16:32:44.877Z</time>
</trkpt>
<trkpt lat="47.3968217" lon="7.0506748">
<ele>488.945</ele>
<time>2013-05-29T16:32:47.742Z</time>
</trkpt>
<trkpt lat="47.3967776" lon="7.0505180">
<ele>488.157</ele>
<time>2013-05-29T16:32:50.625Z</time>
</trkpt>
<trkpt lat="47.3967435" lon="7.0503344">
<ele>487.688</ele>
<time>2013-05-29T16:32:53.887Z</time>
</trkpt>
<trkpt lat="47.3967040" lon="7.0501737">
<ele>487.816</ele>
<time>2013-05-29T16:32:56.877Z</time>
</trkpt>
<trkpt lat="47.3966584" lon="7.0500250">
<ele>488.183</ele>
<time>2013-05-29T16:32:59.789Z</time>
</trkpt>
<trkpt lat="47.3966103" lon="7.0498722">
<ele>488.285</ele>
<time>2013-05-29T16:33:02.816Z</time>
</trkpt>
<trkpt lat="47.3965449" lon="7.0497213">
<ele>488.001</ele>
<time>2013-05-29T16:33:06.015Z</time>
</trkpt>
<trkpt lat="47.3964645" lon="7.0495926">
<ele>487.620</ele>
<time>2013-05-29T16:33:09.142Z</time>
</trkpt>
<trkpt lat="47.3963549" lon="7.0495243">
<ele>487.553</ele>
<time>2013-05-29T16:33:12.283Z</time>
</trkpt>
<trkpt lat="47.3962422" lon="7.0495111">
<ele>487.867</ele>
<time>2013-05-29T16:33:15.264Z</time>
</trkpt>
<trkpt lat="47.3961386" lon="7.0495170">
<ele>488.260</ele>
<time>2013-05-29T16:33:18.035Z</time>
</trkpt>
<trkpt lat="47.3960418" lon="7.0495086">
<ele>488.467</ele>
<time>2013-05-29T16:33:20.765Z</time>
</trkpt>
<trkpt lat="47.3959406" lon="7.0494842">
<ele>488.510</ele>
<time>2013-05-29T16:33:23.832Z</time>
</trkpt>
<trkpt lat="47.3958654" lon="7.0494044">
<ele>488.760</ele>
<time>2013-05-29T16:33:26.872Z</time>
</trkpt>
<trkpt lat="47.3958078" lon="7.0493010">
<ele>489.586</ele>
<time>2013-05-29T16:33:30.173Z</time>
</trkpt>
<trkpt lat="47.3957416" lon="7.0491850">
<ele>490.668</ele>
<time>2013-05-29T16:33:33.850Z</time>
</trkpt>
<trkpt lat="47.3956793" lon="7.0490569">
<ele>491.384</ele>
<time>2013-05-29T16:33:37.363Z</time>
</trkpt>
<trkpt lat="47.3956122" lon="7.0489309">
<ele>491.753</ele>
<time>2013-05-29T16:33:40.680Z</time>
</trkpt>
<trkpt lat="47.3955323" lon="7.0488248">
<ele>492.220</ele>
<time>2013-05-29T16:33:43.784Z</time>
</trkpt>
<trkpt lat="47.3954515" lon="7.0487218">
<ele>492.861</ele>
<time>2013-05-29T16:33:46.786Z</time>
</trkpt>
<trkpt lat="47.3953733" lon="7.0486083">
<ele>493.348</ele>
<time>2013-05-29T16:33:49.801Z</time>
</trkpt>
<trkpt lat="47.3952962" lon="7.0484974">
<ele>493.531</ele>
<time>2013-05-29T16:33:52.708Z</time>
</trkpt>
<trkpt lat="47.3952221" lon="7.0483788">
<ele>493.530</ele>
<time>2013-05-29T16:33:55.642Z</time>
</trkpt>
<trkpt lat="47.3951544" lon="7.0482693">
<ele>493.477</ele>
<time>2013-05-29T16:33:58.360Z</time>
</trkpt>
<trkpt lat="47.3950953" lon="7.0481671">
<ele>493.300</ele>
<time>2013-05-29T16:34:00.891Z</time>
</trkpt>
<trkpt lat="47.3950187" lon="7.0480379">
<ele>492.925</ele>
<time>2013-05-29T16:34:04.226Z</time>
</trkpt>
<trkpt lat="47.3949326" lon="7.0479152">
<ele>492.556</ele>
<time>2013-05-29T16:34:07.818Z</time>
</trkpt>
<trkpt lat="47.3948535" lon="7.0477949">
<ele>492.385</ele>
<time>2013-05-29T16:34:11.352Z</time>
</trkpt>
<trkpt lat="47.3947498" lon="7.0477642">
<ele>492.362</ele>
<time>2013-05-29T16:34:14.847Z</time>
</trkpt>
<trkpt lat="47.3946569" lon="7.0478584">
<ele>492.669</ele>
<time>2013-05-29T16:34:18.924Z</time>
</trkpt>
<trkpt lat="47.3945949" lon="7.0479555">
<ele>493.834</ele>
<time>2013-05-29T16:34:22.389Z</time>
</trkpt>
<trkpt lat="47.3945949" lon="7.0479555">
<ele>496.804</ele>
<time>2013-05-29T16:34:22.489Z</time>
</trkpt>
<trkpt lat="47.3945028" lon="7.0481763">
<ele>496.540</ele>
<time>2013-05-29T16:34:28.222Z</time>
</trkpt>
<trkpt lat="47.3943569" lon="7.0484584">
<ele>496.018</ele>
<time>2013-05-29T16:34:31.543Z</time>
</trkpt>
<trkpt lat="47.3942510" lon="7.0486517">
<ele>496.297</ele>
<time>2013-05-29T16:34:33.414Z</time>
</trkpt>
<trkpt lat="47.3942510" lon="7.0486517">
<ele>496.841</ele>
<time>2013-05-29T16:34:34.419Z</time>
</trkpt>
<trkpt lat="47.3942510" lon="7.0486517">
<ele>496.892</ele>
<time>2013-05-29T16:34:34.519Z</time>
</trkpt>
<trkpt lat="47.3941250" lon="7.0489217">
<ele>496.597</ele>
<time>2013-05-29T16:34:40.930Z</time>
</trkpt>
<trkpt lat="47.3940489" lon="7.0490344">
<ele>496.360</ele>
<time>2013-05-29T16:34:43.349Z</time>
</trkpt>
<trkpt lat="47.3939777" lon="7.0491352">
<ele>496.445</ele>
<time>2013-05-29T16:34:45.723Z</time>
</trkpt>
<trkpt lat="47.3938959" lon="7.0492528">
<ele>496.854</ele>
<time>2013-05-29T16:34:48.627Z</time>
</trkpt>
<trkpt lat="47.3938160" lon="7.0493712">
<ele>497.276</ele>
<time>2013-05-29T16:34:51.563Z</time>
</trkpt>
<trkpt lat="47.3937260" lon="7.0495084">
<ele>497.477</ele>
<time>2013-05-29T16:34:54.854Z</time>
</trkpt>
<trkpt lat="47.3936397" lon="7.0496482">
<ele>497.369</ele>
<time>2013-05-29T16:34:58.023Z</time>
</trkpt>
<trkpt lat="47.3935514" lon="7.0497835">
<ele>496.975</ele>
<time>2013-05-29T16:35:01.099Z</time>
</trkpt>
<trkpt lat="47.3934512" lon="7.0499273">
<ele>496.571</ele>
<time>2013-05-29T16:35:04.371Z</time>
</trkpt>
<trkpt lat="47.3933447" lon="7.0500745">
<ele>496.242</ele>
<time>2013-05-29T16:35:07.629Z</time>
</trkpt>
<trkpt lat="47.3932753" lon="7.0501591">
<ele>495.853</ele>
<time>2013-05-29T16:35:09.549Z</time>
</trkpt>
<trkpt lat="47.3931704" lon="7.0502995">
<ele>495.378</ele>
<time>2013-05-29T16:35:12.526Z</time>
</trkpt>
<trkpt lat="47.3930652" lon="7.0504450">
<ele>494.738</ele>
<time>2013-05-29T16:35:15.526Z</time>
</trkpt>
<trkpt lat="47.3929881" lon="7.0505294">
<ele>493.997</ele>
<time>2013-05-29T16:35:17.515Z</time>
</trkpt>
<trkpt lat="47.3928687" lon="7.0506361">
<ele>493.347</ele>
<time>2013-05-29T16:35:20.374Z</time>
</trkpt>
<trkpt lat="47.3927605" lon="7.0507359">
<ele>492.812</ele>
<time>2013-05-29T16:35:22.791Z</time>
</trkpt>
<trkpt lat="47.3926462" lon="7.0508471">
<ele>492.458</ele>
<time>2013-05-29T16:35:24.965Z</time>
</trkpt>
<trkpt lat="47.3925147" lon="7.0509958">
<ele>492.343</ele>
<time>2013-05-29T16:35:27.219Z</time>
</trkpt>
<trkpt lat="47.3923173" lon="7.0511816">
<ele>492.358</ele>
<time>2013-05-29T16:35:30.204Z</time>
</trkpt>
<trkpt lat="47.3922033" lon="7.0512914">
<ele>492.402</ele>
<time>2013-05-29T16:35:31.975Z</time>
</trkpt>
<trkpt lat="47.3920370" lon="7.0515314">
<ele>492.293</ele>
<time>2013-05-29T16:35:35.142Z</time>
</trkpt>
<trkpt lat="47.3918622" lon="7.0516540">
<ele>491.942</ele>
<time>2013-05-29T16:35:38.173Z</time>
</trkpt>
<trkpt lat="47.3917360" lon="7.0517492">
<ele>491.157</ele>
<time>2013-05-29T16:35:41.005Z</time>
</trkpt>
<trkpt lat="47.3916774" lon="7.0519188">
<ele>489.760</ele>
<time>2013-05-29T16:35:44.216Z</time>
</trkpt>
<trkpt lat="47.3917331" lon="7.0520537">
<ele>488.263</ele>
<time>2013-05-29T16:35:47.166Z</time>
</trkpt>
<trkpt lat="47.3918050" lon="7.0521830">
<ele>487.259</ele>
<time>2013-05-29T16:35:50.162Z</time>
</trkpt>
<trkpt lat="47.3918854" lon="7.0523847">
<ele>486.674</ele>
<time>2013-05-29T16:35:53.922Z</time>
</trkpt>
<trkpt lat="47.3919326" lon="7.0525010">
<ele>486.245</ele>
<time>2013-05-29T16:35:55.975Z</time>
</trkpt>
<trkpt lat="47.3920093" lon="7.0527187">
<ele>485.832</ele>
<time>2013-05-29T16:35:59.412Z</time>
</trkpt>
<trkpt lat="47.3920903" lon="7.0529476">
<ele>485.368</ele>
<time>2013-05-29T16:36:02.684Z</time>
</trkpt>
<trkpt lat="47.3921386" lon="7.0531102">
<ele>484.880</ele>
<time>2013-05-29T16:36:04.763Z</time>
</trkpt>
<trkpt lat="47.3922065" lon="7.0532662">
<ele>484.508</ele>
<time>2013-05-29T16:36:06.863Z</time>
</trkpt>
<trkpt lat="47.3922879" lon="7.0535221">
<ele>484.367</ele>
<time>2013-05-29T16:36:09.974Z</time>
</trkpt>
<trkpt lat="47.3923792" lon="7.0536889">
<ele>484.367</ele>
<time>2013-05-29T16:36:12.273Z</time>
</trkpt>
<trkpt lat="47.3924808" lon="7.0539308">
<ele>484.407</ele>
<time>2013-05-29T16:36:15.148Z</time>
</trkpt>
<trkpt lat="47.3926234" lon="7.0542067">
<ele>484.437</ele>
<time>2013-05-29T16:36:18.459Z</time>
</trkpt>
<trkpt lat="47.3927537" lon="7.0544505">
<ele>484.448</ele>
<time>2013-05-29T16:36:21.372Z</time>
</trkpt>
<trkpt lat="47.3928975" lon="7.0546703">
<ele>484.586</ele>
<time>2013-05-29T16:36:24.190Z</time>
</trkpt>
<trkpt lat="47.3930614" lon="7.0549294">
<ele>484.943</ele>
<time>2013-05-29T16:36:27.432Z</time>
</trkpt>
<trkpt lat="47.3932011" lon="7.0551669">
<ele>485.310</ele>
<time>2013-05-29T16:36:30.385Z</time>
</trkpt>
<trkpt lat="47.3933026" lon="7.0553023">
<ele>485.346</ele>
<time>2013-05-29T16:36:32.322Z</time>
</trkpt>
<trkpt lat="47.3934495" lon="7.0555309">
<ele>485.013</ele>
<time>2013-05-29T16:36:35.346Z</time>
</trkpt>
<trkpt lat="47.3935878" lon="7.0557705">
<ele>484.337</ele>
<time>2013-05-29T16:36:37.996Z</time>
</trkpt>
<trkpt lat="47.3936697" lon="7.0559470">
<ele>483.412</ele>
<time>2013-05-29T16:36:39.682Z</time>
</trkpt>
<trkpt lat="47.3938833" lon="7.0562832">
<ele>482.633</ele>
<time>2013-05-29T16:36:43.586Z</time>
</trkpt>
<trkpt lat="47.3939632" lon="7.0564241">
<ele>482.310</ele>
<time>2013-05-29T16:36:45.261Z</time>
</trkpt>
<trkpt lat="47.3940674" lon="7.0565918">
<ele>482.290</ele>
<time>2013-05-29T16:36:47.305Z</time>
</trkpt>
<trkpt lat="47.3941600" lon="7.0567197">
<ele>482.228</ele>
<time>2013-05-29T16:36:48.876Z</time>
</trkpt>
<trkpt lat="47.3943470" lon="7.0570120">
<ele>481.793</ele>
<time>2013-05-29T16:36:52.142Z</time>
</trkpt>
<trkpt lat="47.3945367" lon="7.0572572">
<ele>481.090</ele>
<time>2013-05-29T16:36:55.058Z</time>
</trkpt>
<trkpt lat="47.3947343" lon="7.0574976">
<ele>480.408</ele>
<time>2013-05-29T16:36:57.953Z</time>
</trkpt>
<trkpt lat="47.3949536" lon="7.0576819">
<ele>479.840</ele>
<time>2013-05-29T16:37:00.678Z</time>
</trkpt>
<trkpt lat="47.3951285" lon="7.0578478">
<ele>479.331</ele>
<time>2013-05-29T16:37:02.905Z</time>
</trkpt>
<trkpt lat="47.3953190" lon="7.0580667">
<ele>478.716</ele>
<time>2013-05-29T16:37:05.566Z</time>
</trkpt>
<trkpt lat="47.3954757" lon="7.0582236">
<ele>478.004</ele>
<time>2013-05-29T16:37:07.693Z</time>
</trkpt>
<trkpt lat="47.3956151" lon="7.0583403">
<ele>477.506</ele>
<time>2013-05-29T16:37:09.476Z</time>
</trkpt>
<trkpt lat="47.3957684" lon="7.0584198">
<ele>477.334</ele>
<time>2013-05-29T16:37:11.283Z</time>
</trkpt>
<trkpt lat="47.3960056" lon="7.0585872">
<ele>477.209</ele>
<time>2013-05-29T16:37:14.256Z</time>
</trkpt>
<trkpt lat="47.3961470" lon="7.0587130">
<ele>476.907</ele>
<time>2013-05-29T16:37:16.188Z</time>
</trkpt>
<trkpt lat="47.3962714" lon="7.0588220">
<ele>476.578</ele>
<time>2013-05-29T16:37:17.902Z</time>
</trkpt>
<trkpt lat="47.3964602" lon="7.0589735">
<ele>476.417</ele>
<time>2013-05-29T16:37:20.502Z</time>
</trkpt>
<trkpt lat="47.3966064" lon="7.0590989">
<ele>476.251</ele>
<time>2013-05-29T16:37:22.554Z</time>
</trkpt>
<trkpt lat="47.3968161" lon="7.0592819">
<ele>475.778</ele>
<time>2013-05-29T16:37:25.413Z</time>
</trkpt>
<trkpt lat="47.3969766" lon="7.0594053">
<ele>475.076</ele>
<time>2013-05-29T16:37:27.491Z</time>
</trkpt>
<trkpt lat="47.3971933" lon="7.0594874">
<ele>474.544</ele>
<time>2013-05-29T16:37:30.173Z</time>
</trkpt>
<trkpt lat="47.3973348" lon="7.0594926">
<ele>473.930</ele>
<time>2013-05-29T16:37:31.952Z</time>
</trkpt>
<trkpt lat="47.3975879" lon="7.0594758">
<ele>472.713</ele>
<time>2013-05-29T16:37:35.189Z</time>
</trkpt>
<trkpt lat="47.3978292" lon="7.0594553">
<ele>471.165</ele>
<time>2013-05-29T16:37:38.289Z</time>
</trkpt>
<trkpt lat="47.3979739" lon="7.0594194">
<ele>469.815</ele>
<time>2013-05-29T16:37:40.158Z</time>
</trkpt>
<trkpt lat="47.3981206" lon="7.0593433">
<ele>468.846</ele>
<time>2013-05-29T16:37:42.143Z</time>
</trkpt>
<trkpt lat="47.3983343" lon="7.0592512">
<ele>468.365</ele>
<time>2013-05-29T16:37:45.006Z</time>
</trkpt>
<trkpt lat="47.3984741" lon="7.0591766">
<ele>468.278</ele>
<time>2013-05-29T16:37:46.907Z</time>
</trkpt>
<trkpt lat="47.3986122" lon="7.0590682">
<ele>468.351</ele>
<time>2013-05-29T16:37:48.918Z</time>
</trkpt>
<trkpt lat="47.3988160" lon="7.0589850">
<ele>468.153</ele>
<time>2013-05-29T16:37:51.730Z</time>
</trkpt>
<trkpt lat="47.3989533" lon="7.0589075">
<ele>467.472</ele>
<time>2013-05-29T16:37:53.787Z</time>
</trkpt>
<trkpt lat="47.3990746" lon="7.0588430">
<ele>466.878</ele>
<time>2013-05-29T16:37:55.645Z</time>
</trkpt>
<trkpt lat="47.3992514" lon="7.0587509">
<ele>466.882</ele>
<time>2013-05-29T16:37:58.373Z</time>
</trkpt>
<trkpt lat="47.3994395" lon="7.0586632">
<ele>467.054</ele>
<time>2013-05-29T16:38:01.280Z</time>
</trkpt>
<trkpt lat="47.3995546" lon="7.0586154">
<ele>466.788</ele>
<time>2013-05-29T16:38:03.080Z</time>
</trkpt>
<trkpt lat="47.3997423" lon="7.0585418">
<ele>466.144</ele>
<time>2013-05-29T16:38:06.066Z</time>
</trkpt>
<trkpt lat="47.3998997" lon="7.0584738">
<ele>465.460</ele>
<time>2013-05-29T16:38:08.669Z</time>
</trkpt>
<trkpt lat="47.4000192" lon="7.0584172">
<ele>464.873</ele>
<time>2013-05-29T16:38:10.701Z</time>
</trkpt>
<trkpt lat="47.4001986" lon="7.0583719">
<ele>464.488</ele>
<time>2013-05-29T16:38:13.648Z</time>
</trkpt>
<trkpt lat="47.4003692" lon="7.0583141">
<ele>464.366</ele>
<time>2013-05-29T16:38:16.489Z</time>
</trkpt>
<trkpt lat="47.4004814" lon="7.0582790">
<ele>464.384</ele>
<time>2013-05-29T16:38:18.364Z</time>
</trkpt>
<trkpt lat="47.4006057" lon="7.0582450">
<ele>464.294</ele>
<time>2013-05-29T16:38:20.442Z</time>
</trkpt>
<trkpt lat="47.4007972" lon="7.0582186">
<ele>463.827</ele>
<time>2013-05-29T16:38:23.611Z</time>
</trkpt>
<trkpt lat="47.4009161" lon="7.0582366">
<ele>462.969</ele>
<time>2013-05-29T16:38:25.581Z</time>
</trkpt>
<trkpt lat="47.4010856" lon="7.0583401">
<ele>461.925</ele>
<time>2013-05-29T16:38:28.628Z</time>
</trkpt>
<trkpt lat="47.4012037" lon="7.0581117">
<ele>460.990</ele>
<time>2013-05-29T16:38:31.924Z</time>
</trkpt>
<trkpt lat="47.4013600" lon="7.0580710">
<ele>460.584</ele>
<time>2013-05-29T16:38:34.635Z</time>
</trkpt>
<trkpt lat="47.4014847" lon="7.0581194">
<ele>460.940</ele>
<time>2013-05-29T16:38:36.849Z</time>
</trkpt>
<trkpt lat="47.4016443" lon="7.0581180">
<ele>461.717</ele>
<time>2013-05-29T16:38:39.617Z</time>
</trkpt>
<trkpt lat="47.4017495" lon="7.0581141">
<ele>462.200</ele>
<time>2013-05-29T16:38:41.485Z</time>
</trkpt>
<trkpt lat="47.4018535" lon="7.0581083">
<ele>462.086</ele>
<time>2013-05-29T16:38:43.343Z</time>
</trkpt>
<trkpt lat="47.4020304" lon="7.0580168">
<ele>461.724</ele>
<time>2013-05-29T16:38:46.649Z</time>
</trkpt>
<trkpt lat="47.4022114" lon="7.0579549">
<ele>461.485</ele>
<time>2013-05-29T16:38:49.949Z</time>
</trkpt>
<trkpt lat="47.4026699" lon="7.0580926">
<ele>461.408</ele>
<time>2013-05-29T16:38:58.308Z</time>
</trkpt>
<trkpt lat="47.4028680" lon="7.0579515">
<ele>461.418</ele>
<time>2013-05-29T16:39:01.939Z</time>
</trkpt>
<trkpt lat="47.4030924" lon="7.0579673">
<ele>461.310</ele>
<time>2013-05-29T16:39:05.466Z</time>
</trkpt>
<trkpt lat="47.4034336" lon="7.0580501">
<ele>460.969</ele>
<time>2013-05-29T16:39:10.607Z</time>
</trkpt>
<trkpt lat="47.4035146" lon="7.0581086">
<ele>460.468</ele>
<time>2013-05-29T16:39:11.952Z</time>
</trkpt>
<trkpt lat="47.4036959" lon="7.0582058">
<ele>459.932</ele>
<time>2013-05-29T16:39:14.907Z</time>
</trkpt>
<trkpt lat="47.4038444" lon="7.0582173">
<ele>459.533</ele>
<time>2013-05-29T16:39:17.325Z</time>
</trkpt>
<trkpt lat="47.4039483" lon="7.0581976">
<ele>459.248</ele>
<time>2013-05-29T16:39:19.289Z</time>
</trkpt>
<trkpt lat="47.4040957" lon="7.0582212">
<ele>458.891</ele>
<time>2013-05-29T16:39:22.253Z</time>
</trkpt>
<trkpt lat="47.4042153" lon="7.0582701">
<ele>458.428</ele>
<time>2013-05-29T16:39:24.629Z</time>
</trkpt>
<trkpt lat="47.4043276" lon="7.0583764">
<ele>457.925</ele>
<time>2013-05-29T16:39:26.669Z</time>
</trkpt>
<trkpt lat="47.4045749" lon="7.0585486">
<ele>457.541</ele>
<time>2013-05-29T16:39:30.387Z</time>
</trkpt>
<trkpt lat="47.4047032" lon="7.0586822">
<ele>457.119</ele>
<time>2013-05-29T16:39:32.366Z</time>
</trkpt>
<trkpt lat="47.4048417" lon="7.0588316">
<ele>456.261</ele>
<time>2013-05-29T16:39:34.407Z</time>
</trkpt>
<trkpt lat="47.4050869" lon="7.0591376">
<ele>455.204</ele>
<time>2013-05-29T16:39:37.635Z</time>
</trkpt>
<trkpt lat="47.4052527" lon="7.0593274">
<ele>454.515</ele>
<time>2013-05-29T16:39:39.652Z</time>
</trkpt>
<trkpt lat="47.4055062" lon="7.0596382">
<ele>454.436</ele>
<time>2013-05-29T16:39:42.706Z</time>
</trkpt>
<trkpt lat="47.4056589" lon="7.0598455">
<ele>454.830</ele>
<time>2013-05-29T16:39:44.622Z</time>
</trkpt>
<trkpt lat="47.4058960" lon="7.0601080">
<ele>455.424</ele>
<time>2013-05-29T16:39:47.397Z</time>
</trkpt>
<trkpt lat="47.4060692" lon="7.0602760">
<ele>456.015</ele>
<time>2013-05-29T16:39:49.299Z</time>
</trkpt>
<trkpt lat="47.4062549" lon="7.0604305">
<ele>456.428</ele>
<time>2013-05-29T16:39:51.224Z</time>
</trkpt>
<trkpt lat="47.4065781" lon="7.0606592">
<ele>456.570</ele>
<time>2013-05-29T16:39:54.334Z</time>
</trkpt>
<trkpt lat="47.4067882" lon="7.0607560">
<ele>456.283</ele>
<time>2013-05-29T16:39:56.196Z</time>
</trkpt>
<trkpt lat="47.4070238" lon="7.0608609">
<ele>455.515</ele>
<time>2013-05-29T16:39:58.265Z</time>
</trkpt>
<trkpt lat="47.4073561" lon="7.0609090">
<ele>454.743</ele>
<time>2013-05-29T16:40:01.199Z</time>
</trkpt>
<trkpt lat="47.4076921" lon="7.0609129">
<ele>453.966</ele>
<time>2013-05-29T16:40:04.523Z</time>
</trkpt>
<trkpt lat="47.4078464" lon="7.0608568">
<ele>452.696</ele>
<time>2013-05-29T16:40:06.269Z</time>
</trkpt>
<trkpt lat="47.4080670" lon="7.0607755">
<ele>450.183</ele>
<time>2013-05-29T16:40:10.358Z</time>
</trkpt>
<trkpt lat="47.4081765" lon="7.0607399">
<ele>448.823</ele>
<time>2013-05-29T16:40:12.417Z</time>
</trkpt>
<trkpt lat="47.4081765" lon="7.0607399">
<ele>447.072</ele>
<time>2013-05-29T16:40:15.413Z</time>
</trkpt>
<trkpt lat="47.4081765" lon="7.0607399">
<ele>445.876</ele>
<time>2013-05-29T16:40:15.513Z</time>
</trkpt>
<trkpt lat="47.4082051" lon="7.0610223">
<ele>445.751</ele>
<time>2013-05-29T16:40:24.634Z</time>
</trkpt>
<trkpt lat="47.4082798" lon="7.0611595">
<ele>445.997</ele>
<time>2013-05-29T16:40:27.663Z</time>
</trkpt>
<trkpt lat="47.4084495" lon="7.0611025">
<ele>445.943</ele>
<time>2013-05-29T16:40:31.110Z</time>
</trkpt>
<trkpt lat="47.4086130" lon="7.0610394">
<ele>445.547</ele>
<time>2013-05-29T16:40:33.732Z</time>
</trkpt>
<trkpt lat="47.4087346" lon="7.0610281">
<ele>444.869</ele>
<time>2013-05-29T16:40:35.503Z</time>
</trkpt>
<trkpt lat="47.4088759" lon="7.0610887">
<ele>443.803</ele>
<time>2013-05-29T16:40:37.587Z</time>
</trkpt>
<trkpt lat="47.4089864" lon="7.0612004">
<ele>442.543</ele>
<time>2013-05-29T16:40:39.477Z</time>
</trkpt>
<trkpt lat="47.4091227" lon="7.0613854">
<ele>441.624</ele>
<time>2013-05-29T16:40:42.151Z</time>
</trkpt>
<trkpt lat="47.4092134" lon="7.0615081">
<ele>441.015</ele>
<time>2013-05-29T16:40:43.925Z</time>
</trkpt>
<trkpt lat="47.4093691" lon="7.0617875">
<ele>440.307</ele>
<time>2013-05-29T16:40:47.311Z</time>
</trkpt>
<trkpt lat="47.4095014" lon="7.0620048">
<ele>439.672</ele>
<time>2013-05-29T16:40:49.938Z</time>
</trkpt>
<trkpt lat="47.4095828" lon="7.0621659">
<ele>439.258</ele>
<time>2013-05-29T16:40:51.753Z</time>
</trkpt>
<trkpt lat="47.4096794" lon="7.0623543">
<ele>438.871</ele>
<time>2013-05-29T16:40:53.928Z</time>
</trkpt>
<trkpt lat="47.4098067" lon="7.0625445">
<ele>438.561</ele>
<time>2013-05-29T16:40:56.501Z</time>
</trkpt>
<trkpt lat="47.4098883" lon="7.0626908">
<ele>438.299</ele>
<time>2013-05-29T16:40:58.443Z</time>
</trkpt>
<trkpt lat="47.4099544" lon="7.0628168">
<ele>437.935</ele>
<time>2013-05-29T16:41:00.146Z</time>
</trkpt>
<trkpt lat="47.4100924" lon="7.0630094">
<ele>437.597</ele>
<time>2013-05-29T16:41:03.191Z</time>
</trkpt>
<trkpt lat="47.4101808" lon="7.0631105">
<ele>437.585</ele>
<time>2013-05-29T16:41:05.093Z</time>
</trkpt>
<trkpt lat="47.4102786" lon="7.0633459">
<ele>437.928</ele>
<time>2013-05-29T16:41:08.756Z</time>
</trkpt>
<trkpt lat="47.4103517" lon="7.0634758">
<ele>438.328</ele>
<time>2013-05-29T16:41:11.190Z</time>
</trkpt>
<trkpt lat="47.4104812" lon="7.0637060">
<ele>438.393</ele>
<time>2013-05-29T16:41:15.639Z</time>
</trkpt>
<trkpt lat="47.4105536" lon="7.0638349">
<ele>437.933</ele>
<time>2013-05-29T16:41:17.742Z</time>
</trkpt>
<trkpt lat="47.4106880" lon="7.0640743">
<ele>437.175</ele>
<time>2013-05-29T16:41:21.474Z</time>
</trkpt>
<trkpt lat="47.4107609" lon="7.0642031">
<ele>436.598</ele>
<time>2013-05-29T16:41:23.436Z</time>
</trkpt>
<trkpt lat="47.4108920" lon="7.0644340">
<ele>436.380</ele>
<time>2013-05-29T16:41:26.899Z</time>
</trkpt>
<trkpt lat="47.4109695" lon="7.0645702">
<ele>436.518</ele>
<time>2013-05-29T16:41:28.936Z</time>
</trkpt>
<trkpt lat="47.4110718" lon="7.0647587">
<ele>436.941</ele>
<time>2013-05-29T16:41:31.784Z</time>
</trkpt>
<trkpt lat="47.4111336" lon="7.0648952">
<ele>437.357</ele>
<time>2013-05-29T16:41:34.507Z</time>
</trkpt>
<trkpt lat="47.4111882" lon="7.0650188">
<ele>437.550</ele>
<time>2013-05-29T16:41:36.956Z</time>
</trkpt>
<trkpt lat="47.4113098" lon="7.0651023">
<ele>437.438</ele>
<time>2013-05-29T16:41:41.366Z</time>
</trkpt>
<trkpt lat="47.4114620" lon="7.0651716">
<ele>436.905</ele>
<time>2013-05-29T16:41:45.605Z</time>
</trkpt>
<trkpt lat="47.4115895" lon="7.0652748">
<ele>436.141</ele>
<time>2013-05-29T16:41:48.932Z</time>
</trkpt>
<trkpt lat="47.4116720" lon="7.0653717">
<ele>435.581</ele>
<time>2013-05-29T16:41:51.115Z</time>
</trkpt>
<trkpt lat="47.4118292" lon="7.0655657">
<ele>435.377</ele>
<time>2013-05-29T16:41:55.084Z</time>
</trkpt>
<trkpt lat="47.4119055" lon="7.0656653">
<ele>435.384</ele>
<time>2013-05-29T16:41:57.031Z</time>
</trkpt>
<trkpt lat="47.4119749" lon="7.0657608">
<ele>435.447</ele>
<time>2013-05-29T16:41:58.838Z</time>
</trkpt>
<trkpt lat="47.4121148" lon="7.0659538">
<ele>435.492</ele>
<time>2013-05-29T16:42:02.405Z</time>
</trkpt>
<trkpt lat="47.4122074" lon="7.0660826">
<ele>435.370</ele>
<time>2013-05-29T16:42:04.676Z</time>
</trkpt>
<trkpt lat="47.4122915" lon="7.0662018">
<ele>435.148</ele>
<time>2013-05-29T16:42:06.708Z</time>
</trkpt>
<trkpt lat="47.4124244" lon="7.0663947">
<ele>434.995</ele>
<time>2013-05-29T16:42:09.839Z</time>
</trkpt>
<trkpt lat="47.4125237" lon="7.0665408">
<ele>434.825</ele>
<time>2013-05-29T16:42:12.161Z</time>
</trkpt>
<trkpt lat="47.4126035" lon="7.0666639">
<ele>434.465</ele>
<time>2013-05-29T16:42:14.099Z</time>
</trkpt>
<trkpt lat="47.4127158" lon="7.0668540">
<ele>433.849</ele>
<time>2013-05-29T16:42:16.925Z</time>
</trkpt>
<trkpt lat="47.4128050" lon="7.0671188">
<ele>433.093</ele>
<time>2013-05-29T16:42:20.106Z</time>
</trkpt>
<trkpt lat="47.4128624" lon="7.0673437">
<ele>432.563</ele>
<time>2013-05-29T16:42:22.680Z</time>
</trkpt>
<trkpt lat="47.4129328" lon="7.0675940">
<ele>432.241</ele>
<time>2013-05-29T16:42:25.690Z</time>
</trkpt>
<trkpt lat="47.4129918" lon="7.0677814">
<ele>431.894</ele>
<time>2013-05-29T16:42:28.059Z</time>
</trkpt>
<trkpt lat="47.4129776" lon="7.0680899">
<ele>431.587</ele>
<time>2013-05-29T16:42:31.684Z</time>
</trkpt>
<trkpt lat="47.4130005" lon="7.0682399">
<ele>431.593</ele>
<time>2013-05-29T16:42:33.500Z</time>
</trkpt>
<trkpt lat="47.4130313" lon="7.0686305">
<ele>432.079</ele>
<time>2013-05-29T16:42:38.056Z</time>
</trkpt>
<trkpt lat="47.4130420" lon="7.0688017">
<ele>432.837</ele>
<time>2013-05-29T16:42:39.981Z</time>
</trkpt>
<trkpt lat="47.4131212" lon="7.0690533">
<ele>433.268</ele>
<time>2013-05-29T16:42:43.046Z</time>
</trkpt>
<trkpt lat="47.4131550" lon="7.0692138">
<ele>432.983</ele>
<time>2013-05-29T16:42:44.960Z</time>
</trkpt>
<trkpt lat="47.4131962" lon="7.0693638">
<ele>432.113</ele>
<time>2013-05-29T16:42:46.961Z</time>
</trkpt>
<trkpt lat="47.4132206" lon="7.0695248">
<ele>431.146</ele>
<time>2013-05-29T16:42:49.563Z</time>
</trkpt>
<trkpt lat="47.4131614" lon="7.0697239">
<ele>430.528</ele>
<time>2013-05-29T16:42:53.925Z</time>
</trkpt>
<trkpt lat="47.4130555" lon="7.0697603">
<ele>430.478</ele>
<time>2013-05-29T16:42:57.329Z</time>
</trkpt>
<trkpt lat="47.4129600" lon="7.0697917">
<ele>430.871</ele>
<time>2013-05-29T16:43:00.856Z</time>
</trkpt>
<trkpt lat="47.4128637" lon="7.0698234">
<ele>431.320</ele>
<time>2013-05-29T16:43:04.409Z</time>
</trkpt>
<trkpt lat="47.4128637" lon="7.0698234">
<ele>431.545</ele>
<time>2013-05-29T16:43:16.432Z</time>
</trkpt>
<trkpt lat="47.4128637" lon="7.0698234">
<ele>431.524</ele>
<time>2013-05-29T16:43:44.478Z</time>
</trkpt>
<trkpt lat="47.4128637" lon="7.0698234">
<ele>431.328</ele>
<time>2013-05-29T16:43:58.045Z</time>
</trkpt>
</trkseg>
</trk>
<extensions>
<fpdata xmlns="http://www.motionx.com/GPX-Extensions/1/1" sfv="10" origin="MotionXGPSFull 20.0 Build 4621R">
<bin enc="base64">
RAIAAAACAAAA1Jyuu4pp1EEBAAAAfqfiE4xp1EEAAKDTWH2VQKsBAAB5tAkAxO9cMPER
e0D2jjfnPfV6QAAAAAAKAAAAVHJhY2sgMDAyABUAAAAyOSBtYWkgMjAxMyAgNjoyMSBw
bQAAAAAABKjiE4xp1EEoD+MTjGnUQeb8FACmHHfBNOd8QCwAAAACAAAA8hwAqTJEHEBG
GAS7zrRHQMTvXDDxEXtAAAAAAAAAFEAAAAAAAAAQQAAAAAAAsJNAAAAAAAAAAAAAAAAA
16NwPQq3cEBMI6+ckx17QAEAAABe9zl27+yCvwEAAAABAAAAWJ2Wshtqsj/5yIxppZOl
vwEAAAABAAAADgAAAMqYyStUvrdAAAAAAAAAAAAAAAAAAAAAAAAAAAAAAAAAAAAAAAAA
AAAAAAAAAAAAAI4IAADW44ITjGnUQQAAAAAAAAAAAAAAAAAAAAD/JUS8AQAAAAAAAAAA
AAAAZVcAAAEAAAABAgAAAO4qplFOMKZRBPmerruKadRB+Z6uu4pp1EEAAAAAANIhPwAA
AAAB9pyuu4pp1EEwKoQTjGnUQQAAoNNYfZVAAAAAAAAAAAA=
</bin>
</fpdata>
</extensions>
</gpx>
